sensor_id;sensor_type;location;lat;lon;timestamp;P1;durP1;ratioP1;P2;durP2;ratioP2
14470;SDS011;7321;50.802;4.336;2023-07-22T00:02:31;12.60;;;8.75;;
14470;SDS011;7321;50.802;4.336;2023-07-22T00:04:57;12.15;;;8.70;;
14470;SDS011;7321;50.802;4.336;2023-07-22T00:07:23;12.82;;;9.00;;
14470;SDS011;7321;50.802;4.336;2023-07-22T00:09:49;11.63;;;9.00;;
14470;SDS011;7321;50.802;4.336;2023-07-22T00:12:15;11.70;;;9.52;;
14470;SDS011;7321;50.802;4.336;2023-07-22T00:14:41;10.32;;;9.30;;
14470;SDS011;7321;50.802;4.336;2023-07-22T00:17:07;11.25;;;8.90;;
14470;SDS011;7321;50.802;4.336;2023-07-22T00:19:33;11.13;;;9.60;;
14470;SDS011;7321;50.802;4.336;2023-07-22T00:21:59;11.70;;;9.45;;
14470;SDS011;7321;50.802;4.336;2023-07-22T00:24:25;11.77;;;9.93;;
14470;SDS011;7321;50.802;4.336;2023-07-22T00:26:51;11.30;;;9.45;;
14470;SDS011;7321;50.802;4.336;2023-07-22T00:29:17;10.30;;;9.30;;
14470;SDS011;7321;50.802;4.336;2023-07-22T00:31:43;10.85;;;9.75;;
14470;SDS011;7321;50.802;4.336;2023-07-22T00:34:09;11.88;;;10.00;;
14470;SDS011;7321;50.802;4.336;2023-07-22T00:36:35;11.57;;;9.32;;
14470;SDS011;7321;50.802;4.336;2023-07-22T00:39:03;11.65;;;9.93;;
14470;SDS011;7321;50.802;4.336;2023-07-22T00:41:29;10.82;;;9.27;;
14470;SDS011;7321;50.802;4.336;2023-07-22T00:43:55;11.70;;;9.60;;
14470;SDS011;7321;50.802;4.336;2023-07-22T00:46:21;14.35;;;9.73;;
14470;SDS011;7321;50.802;4.336;2023-07-22T00:48:47;11.73;;;9.93;;
14470;SDS011;7321;50.802;4.336;2023-07-22T00:51:14;10.40;;;9.35;;
14470;SDS011;7321;50.802;4.336;2023-07-22T00:53:41;13.70;;;10.02;;
14470;SDS011;7321;50.802;4.336;2023-07-22T00:56:06;12.32;;;9.30;;
14470;SDS011;7321;50.802;4.336;2023-07-22T00:58:33;17.50;;;10.13;;
14470;SDS011;7321;50.802;4.336;2023-07-22T01:00:59;13.32;;;9.25;;
14470;SDS011;7321;50.802;4.336;2023-07-22T01:03:25;14.10;;;10.27;;
14470;SDS011;7321;50.802;4.336;2023-07-22T01:05:51;12.98;;;9.20;;
14470;SDS011;7321;50.802;4.336;2023-07-22T01:08:20;13.05;;;9.50;;
14470;SDS011;7321;50.802;4.336;2023-07-22T01:10:46;13.88;;;9.85;;
14470;SDS011;7321;50.802;4.336;2023-07-22T01:13:13;13.98;;;9.32;;
14470;SDS011;7321;50.802;4.336;2023-07-22T01:15:39;14.93;;;10.23;;
14470;SDS011;7321;50.802;4.336;2023-07-22T01:18:06;11.05;;;9.55;;
14470;SDS011;7321;50.802;4.336;2023-07-22T01:20:33;12.55;;;9.05;;
14470;SDS011;7321;50.802;4.336;2023-07-22T01:22:59;13.80;;;9.60;;
14470;SDS011;7321;50.802;4.336;2023-07-22T01:25:26;13.65;;;9.80;;
14470;SDS011;7321;50.802;4.336;2023-07-22T01:27:53;11.85;;;9.43;;
14470;SDS011;7321;50.802;4.336;2023-07-22T01:30:19;11.38;;;9.40;;
14470;SDS011;7321;50.802;4.336;2023-07-22T01:32:46;11.43;;;9.02;;
14470;SDS011;7321;50.802;4.336;2023-07-22T01:35:12;12.55;;;9.10;;
14470;SDS011;7321;50.802;4.336;2023-07-22T01:37:38;13.52;;;9.98;;
14470;SDS011;7321;50.802;4.336;2023-07-22T01:40:04;13.68;;;10.70;;
14470;SDS011;7321;50.802;4.336;2023-07-22T01:42:39;14.05;;;9.68;;
14470;SDS011;7321;50.802;4.336;2023-07-22T01:45:06;12.95;;;9.90;;
14470;SDS011;7321;50.802;4.336;2023-07-22T01:47:33;12.80;;;9.73;;
14470;SDS011;7321;50.802;4.336;2023-07-22T01:50:01;13.25;;;9.77;;
14470;SDS011;7321;50.802;4.336;2023-07-22T01:52:33;12.25;;;9.23;;
14470;SDS011;7321;50.802;4.336;2023-07-22T01:54:59;10.88;;;8.75;;
14470;SDS011;7321;50.802;4.336;2023-07-22T01:57:24;12.10;;;9.48;;
14470;SDS011;7321;50.802;4.336;2023-07-22T01:59:50;13.38;;;9.63;;
14470;SDS011;7321;50.802;4.336;2023-07-22T02:02:16;15.45;;;11.15;;
14470;SDS011;7321;50.802;4.336;2023-07-22T02:04:42;12.65;;;9.70;;
14470;SDS011;7321;50.802;4.336;2023-07-22T02:07:07;16.13;;;10.57;;
14470;SDS011;7321;50.802;4.336;2023-07-22T02:09:34;12.68;;;10.30;;
14470;SDS011;7321;50.802;4.336;2023-07-22T02:12:01;14.63;;;10.25;;
14470;SDS011;7321;50.802;4.336;2023-07-22T02:14:27;14.25;;;10.32;;
14470;SDS011;7321;50.802;4.336;2023-07-22T02:16:53;13.25;;;10.02;;
14470;SDS011;7321;50.802;4.336;2023-07-22T02:19:19;13.98;;;10.52;;
14470;SDS011;7321;50.802;4.336;2023-07-22T02:21:44;15.02;;;10.45;;
14470;SDS011;7321;50.802;4.336;2023-07-22T02:24:10;15.27;;;11.23;;
14470;SDS011;7321;50.802;4.336;2023-07-22T02:26:36;15.20;;;10.80;;
14470;SDS011;7321;50.802;4.336;2023-07-22T02:29:02;14.52;;;11.18;;
14470;SDS011;7321;50.802;4.336;2023-07-22T02:31:28;15.10;;;10.63;;
14470;SDS011;7321;50.802;4.336;2023-07-22T02:33:54;16.67;;;11.93;;
14470;SDS011;7321;50.802;4.336;2023-07-22T02:36:19;14.27;;;11.30;;
14470;SDS011;7321;50.802;4.336;2023-07-22T02:38:45;17.17;;;11.13;;
14470;SDS011;7321;50.802;4.336;2023-07-22T02:41:11;18.73;;;11.73;;
14470;SDS011;7321;50.802;4.336;2023-07-22T02:43:37;14.98;;;11.25;;
14470;SDS011;7321;50.802;4.336;2023-07-22T02:46:03;17.15;;;12.68;;
14470;SDS011;7321;50.802;4.336;2023-07-22T02:48:32;17.45;;;11.57;;
14470;SDS011;7321;50.802;4.336;2023-07-22T02:51:04;18.17;;;11.60;;
14470;SDS011;7321;50.802;4.336;2023-07-22T02:53:34;17.98;;;12.00;;
14470;SDS011;7321;50.802;4.336;2023-07-22T02:56:03;24.23;;;13.00;;
14470;SDS011;7321;50.802;4.336;2023-07-22T02:58:31;18.80;;;12.40;;
14470;SDS011;7321;50.802;4.336;2023-07-22T03:00:58;16.43;;;11.60;;
14470;SDS011;7321;50.802;4.336;2023-07-22T03:03:24;19.60;;;12.32;;
14470;SDS011;7321;50.802;4.336;2023-07-22T03:05:50;18.77;;;12.20;;
14470;SDS011;7321;50.802;4.336;2023-07-22T03:08:17;17.43;;;13.30;;
14470;SDS011;7321;50.802;4.336;2023-07-22T03:10:43;18.48;;;12.20;;
14470;SDS011;7321;50.802;4.336;2023-07-22T03:13:16;18.03;;;13.43;;
14470;SDS011;7321;50.802;4.336;2023-07-22T03:15:43;19.63;;;12.53;;
14470;SDS011;7321;50.802;4.336;2023-07-22T03:18:09;20.47;;;13.00;;
14470;SDS011;7321;50.802;4.336;2023-07-22T03:20:35;18.27;;;11.70;;
14470;SDS011;7321;50.802;4.336;2023-07-22T03:23:02;20.95;;;13.73;;
14470;SDS011;7321;50.802;4.336;2023-07-22T03:25:28;16.80;;;12.47;;
14470;SDS011;7321;50.802;4.336;2023-07-22T03:27:54;19.50;;;12.53;;
14470;SDS011;7321;50.802;4.336;2023-07-22T03:30:22;19.73;;;12.33;;
14470;SDS011;7321;50.802;4.336;2023-07-22T03:32:48;19.80;;;13.52;;
14470;SDS011;7321;50.802;4.336;2023-07-22T03:35:16;18.45;;;12.40;;
14470;SDS011;7321;50.802;4.336;2023-07-22T03:37:42;18.58;;;12.32;;
14470;SDS011;7321;50.802;4.336;2023-07-22T03:40:08;17.92;;;12.98;;
14470;SDS011;7321;50.802;4.336;2023-07-22T03:42:55;16.75;;;12.20;;
14470;SDS011;7321;50.802;4.336;2023-07-22T03:45:22;17.13;;;12.43;;
14470;SDS011;7321;50.802;4.336;2023-07-22T03:47:58;17.00;;;11.83;;
14470;SDS011;7321;50.802;4.336;2023-07-22T03:50:25;19.83;;;11.27;;
14470;SDS011;7321;50.802;4.336;2023-07-22T03:52:52;15.83;;;11.50;;
14470;SDS011;7321;50.802;4.336;2023-07-22T03:55:18;18.35;;;12.13;;
14470;SDS011;7321;50.802;4.336;2023-07-22T03:57:46;17.57;;;12.33;;
14470;SDS011;7321;50.802;4.336;2023-07-22T04:00:12;18.03;;;11.90;;
14470;SDS011;7321;50.802;4.336;2023-07-22T04:02:38;20.07;;;11.67;;
14470;SDS011;7321;50.802;4.336;2023-07-22T04:05:04;22.30;;;12.45;;
14470;SDS011;7321;50.802;4.336;2023-07-22T04:07:30;18.30;;;12.07;;
14470;SDS011;7321;50.802;4.336;2023-07-22T04:09:56;16.58;;;11.77;;
14470;SDS011;7321;50.802;4.336;2023-07-22T04:12:22;16.20;;;11.43;;
14470;SDS011;7321;50.802;4.336;2023-07-22T04:14:48;18.70;;;12.43;;
14470;SDS011;7321;50.802;4.336;2023-07-22T04:17:14;16.07;;;12.03;;
14470;SDS011;7321;50.802;4.336;2023-07-22T04:19:40;19.30;;;12.27;;
14470;SDS011;7321;50.802;4.336;2023-07-22T04:22:08;21.17;;;11.90;;
14470;SDS011;7321;50.802;4.336;2023-07-22T04:24:33;17.25;;;12.25;;
14470;SDS011;7321;50.802;4.336;2023-07-22T04:27:00;15.80;;;10.90;;
14470;SDS011;7321;50.802;4.336;2023-07-22T04:29:26;17.23;;;11.07;;
14470;SDS011;7321;50.802;4.336;2023-07-22T04:31:56;15.32;;;11.68;;
14470;SDS011;7321;50.802;4.336;2023-07-22T04:34:23;22.73;;;12.70;;
14470;SDS011;7321;50.802;4.336;2023-07-22T04:36:50;19.10;;;12.20;;
14470;SDS011;7321;50.802;4.336;2023-07-22T04:39:16;17.43;;;11.53;;
14470;SDS011;7321;50.802;4.336;2023-07-22T04:41:42;17.23;;;11.40;;
14470;SDS011;7321;50.802;4.336;2023-07-22T04:44:08;19.42;;;11.43;;
14470;SDS011;7321;50.802;4.336;2023-07-22T04:46:34;18.50;;;11.53;;
14470;SDS011;7321;50.802;4.336;2023-07-22T04:49:00;20.20;;;12.20;;
14470;SDS011;7321;50.802;4.336;2023-07-22T04:51:27;17.42;;;11.50;;
14470;SDS011;7321;50.802;4.336;2023-07-22T04:53:52;19.40;;;11.00;;
14470;SDS011;7321;50.802;4.336;2023-07-22T04:56:18;18.50;;;11.37;;
14470;SDS011;7321;50.802;4.336;2023-07-22T04:58:44;15.57;;;10.57;;
14470;SDS011;7321;50.802;4.336;2023-07-22T05:01:10;17.87;;;11.47;;
14470;SDS011;7321;50.802;4.336;2023-07-22T05:03:36;17.30;;;10.93;;
14470;SDS011;7321;50.802;4.336;2023-07-22T05:06:02;17.73;;;11.40;;
14470;SDS011;7321;50.802;4.336;2023-07-22T05:08:27;15.03;;;10.90;;
14470;SDS011;7321;50.802;4.336;2023-07-22T05:10:53;18.67;;;10.57;;
14470;SDS011;7321;50.802;4.336;2023-07-22T05:13:19;20.57;;;10.77;;
14470;SDS011;7321;50.802;4.336;2023-07-22T05:15:45;20.43;;;11.53;;
14470;SDS011;7321;50.802;4.336;2023-07-22T05:18:12;16.50;;;10.70;;
14470;SDS011;7321;50.802;4.336;2023-07-22T05:20:38;16.98;;;10.65;;
14470;SDS011;7321;50.802;4.336;2023-07-22T05:23:04;19.33;;;10.32;;
14470;SDS011;7321;50.802;4.336;2023-07-22T05:25:31;15.98;;;9.90;;
14470;SDS011;7321;50.802;4.336;2023-07-22T05:27:57;15.70;;;9.75;;
14470;SDS011;7321;50.802;4.336;2023-07-22T05:30:23;14.45;;;9.93;;
14470;SDS011;7321;50.802;4.336;2023-07-22T05:32:51;16.63;;;10.13;;
14470;SDS011;7321;50.802;4.336;2023-07-22T05:35:18;14.80;;;9.90;;
14470;SDS011;7321;50.802;4.336;2023-07-22T05:37:44;15.50;;;9.55;;
14470;SDS011;7321;50.802;4.336;2023-07-22T05:40:10;13.48;;;9.40;;
14470;SDS011;7321;50.802;4.336;2023-07-22T05:42:36;12.93;;;9.10;;
14470;SDS011;7321;50.802;4.336;2023-07-22T05:45:02;13.23;;;9.05;;
14470;SDS011;7321;50.802;4.336;2023-07-22T05:47:28;15.50;;;9.35;;
14470;SDS011;7321;50.802;4.336;2023-07-22T05:49:54;15.30;;;8.63;;
14470;SDS011;7321;50.802;4.336;2023-07-22T05:52:20;10.20;;;8.25;;
14470;SDS011;7321;50.802;4.336;2023-07-22T05:54:46;13.57;;;8.40;;
14470;SDS011;7321;50.802;4.336;2023-07-22T05:57:12;13.55;;;8.68;;
14470;SDS011;7321;50.802;4.336;2023-07-22T05:59:38;10.38;;;7.55;;
14470;SDS011;7321;50.802;4.336;2023-07-22T06:02:04;10.80;;;7.85;;
14470;SDS011;7321;50.802;4.336;2023-07-22T06:04:31;11.65;;;8.20;;
14470;SDS011;7321;50.802;4.336;2023-07-22T06:06:57;14.13;;;8.32;;
14470;SDS011;7321;50.802;4.336;2023-07-22T06:09:23;12.25;;;7.53;;
14470;SDS011;7321;50.802;4.336;2023-07-22T06:11:49;13.75;;;8.13;;
14470;SDS011;7321;50.802;4.336;2023-07-22T06:14:15;12.60;;;7.97;;
14470;SDS011;7321;50.802;4.336;2023-07-22T06:16:41;10.57;;;7.47;;
14470;SDS011;7321;50.802;4.336;2023-07-22T06:19:07;13.57;;;7.90;;
14470;SDS011;7321;50.802;4.336;2023-07-22T06:21:33;15.80;;;8.30;;
14470;SDS011;7321;50.802;4.336;2023-07-22T06:23:59;12.27;;;8.07;;
14470;SDS011;7321;50.802;4.336;2023-07-22T06:26:24;12.70;;;7.78;;
14470;SDS011;7321;50.802;4.336;2023-07-22T06:28:50;11.20;;;7.53;;
14470;SDS011;7321;50.802;4.336;2023-07-22T06:31:16;13.40;;;8.15;;
14470;SDS011;7321;50.802;4.336;2023-07-22T06:33:43;14.45;;;7.20;;
14470;SDS011;7321;50.802;4.336;2023-07-22T06:36:09;12.55;;;7.68;;
14470;SDS011;7321;50.802;4.336;2023-07-22T06:38:37;10.60;;;7.53;;
14470;SDS011;7321;50.802;4.336;2023-07-22T06:41:03;11.43;;;8.02;;
14470;SDS011;7321;50.802;4.336;2023-07-22T06:43:29;14.85;;;8.02;;
14470;SDS011;7321;50.802;4.336;2023-07-22T06:45:55;10.77;;;7.13;;
14470;SDS011;7321;50.802;4.336;2023-07-22T06:48:21;12.10;;;8.00;;
14470;SDS011;7321;50.802;4.336;2023-07-22T06:50:50;12.07;;;7.43;;
14470;SDS011;7321;50.802;4.336;2023-07-22T06:53:16;12.75;;;7.80;;
14470;SDS011;7321;50.802;4.336;2023-07-22T06:55:48;12.02;;;7.63;;
14470;SDS011;7321;50.802;4.336;2023-07-22T06:58:16;11.90;;;7.90;;
14470;SDS011;7321;50.802;4.336;2023-07-22T07:00:42;11.60;;;7.20;;
14470;SDS011;7321;50.802;4.336;2023-07-22T07:03:08;10.38;;;7.47;;
14470;SDS011;7321;50.802;4.336;2023-07-22T07:05:33;9.98;;;7.80;;
14470;SDS011;7321;50.802;4.336;2023-07-22T07:08:00;15.07;;;7.32;;
14470;SDS011;7321;50.802;4.336;2023-07-22T07:10:25;9.70;;;7.13;;
14470;SDS011;7321;50.802;4.336;2023-07-22T07:12:51;10.52;;;6.35;;
14470;SDS011;7321;50.802;4.336;2023-07-22T07:15:17;11.00;;;7.25;;
14470;SDS011;7321;50.802;4.336;2023-07-22T07:17:43;11.65;;;6.65;;
14470;SDS011;7321;50.802;4.336;2023-07-22T07:20:09;9.98;;;6.72;;
14470;SDS011;7321;50.802;4.336;2023-07-22T07:22:35;10.60;;;6.57;;
14470;SDS011;7321;50.802;4.336;2023-07-22T07:25:01;13.23;;;7.13;;
14470;SDS011;7321;50.802;4.336;2023-07-22T07:27:27;11.00;;;7.20;;
14470;SDS011;7321;50.802;4.336;2023-07-22T07:29:53;12.75;;;6.80;;
14470;SDS011;7321;50.802;4.336;2023-07-22T07:32:20;10.25;;;7.13;;
14470;SDS011;7321;50.802;4.336;2023-07-22T07:34:46;13.27;;;7.47;;
14470;SDS011;7321;50.802;4.336;2023-07-22T07:37:12;11.52;;;7.07;;
14470;SDS011;7321;50.802;4.336;2023-07-22T07:39:38;12.70;;;6.60;;
14470;SDS011;7321;50.802;4.336;2023-07-22T07:42:04;12.02;;;6.43;;
14470;SDS011;7321;50.802;4.336;2023-07-22T07:44:30;13.13;;;6.85;;
14470;SDS011;7321;50.802;4.336;2023-07-22T07:46:56;11.32;;;5.78;;
14470;SDS011;7321;50.802;4.336;2023-07-22T07:49:21;11.23;;;6.95;;
14470;SDS011;7321;50.802;4.336;2023-07-22T07:51:47;9.90;;;6.07;;
14470;SDS011;7321;50.802;4.336;2023-07-22T07:54:13;8.43;;;6.18;;
14470;SDS011;7321;50.802;4.336;2023-07-22T07:56:40;8.02;;;5.43;;
14470;SDS011;7321;50.802;4.336;2023-07-22T07:59:05;8.65;;;5.55;;
14470;SDS011;7321;50.802;4.336;2023-07-22T08:01:33;12.07;;;6.13;;
14470;SDS011;7321;50.802;4.336;2023-07-22T08:04:00;10.45;;;5.50;;
14470;SDS011;7321;50.802;4.336;2023-07-22T08:06:26;9.90;;;6.35;;
14470;SDS011;7321;50.802;4.336;2023-07-22T08:08:52;10.98;;;5.80;;
14470;SDS011;7321;50.802;4.336;2023-07-22T08:11:18;8.80;;;5.50;;
14470;SDS011;7321;50.802;4.336;2023-07-22T08:13:44;7.57;;;5.72;;
14470;SDS011;7321;50.802;4.336;2023-07-22T08:16:11;7.68;;;5.15;;
14470;SDS011;7321;50.802;4.336;2023-07-22T08:18:38;11.60;;;5.97;;
14470;SDS011;7321;50.802;4.336;2023-07-22T08:21:04;9.80;;;5.65;;
14470;SDS011;7321;50.802;4.336;2023-07-22T08:23:34;9.05;;;5.38;;
14470;SDS011;7321;50.802;4.336;2023-07-22T08:26:01;9.38;;;5.22;;
14470;SDS011;7321;50.802;4.336;2023-07-22T08:28:29;10.73;;;5.20;;
14470;SDS011;7321;50.802;4.336;2023-07-22T08:30:55;9.65;;;5.85;;
14470;SDS011;7321;50.802;4.336;2023-07-22T08:33:22;10.40;;;5.40;;
14470;SDS011;7321;50.802;4.336;2023-07-22T08:35:52;10.18;;;5.20;;
14470;SDS011;7321;50.802;4.336;2023-07-22T08:38:18;7.90;;;5.03;;
14470;SDS011;7321;50.802;4.336;2023-07-22T08:40:43;9.57;;;5.10;;
14470;SDS011;7321;50.802;4.336;2023-07-22T08:43:10;8.73;;;4.75;;
14470;SDS011;7321;50.802;4.336;2023-07-22T08:45:37;10.10;;;5.80;;
14470;SDS011;7321;50.802;4.336;2023-07-22T08:48:05;13.43;;;7.45;;
14470;SDS011;7321;50.802;4.336;2023-07-22T08:50:51;6.47;;;4.25;;
14470;SDS011;7321;50.802;4.336;2023-07-22T08:53:33;10.18;;;8.02;;
14470;SDS011;7321;50.802;4.336;2023-07-22T08:56:06;7.68;;;5.43;;
14470;SDS011;7321;50.802;4.336;2023-07-22T08:58:34;18.77;;;13.93;;
14470;SDS011;7321;50.802;4.336;2023-07-22T09:01:03;12.48;;;8.82;;
14470;SDS011;7321;50.802;4.336;2023-07-22T09:03:30;17.05;;;10.93;;
14470;SDS011;7321;50.802;4.336;2023-07-22T09:05:56;7.13;;;4.25;;
14470;SDS011;7321;50.802;4.336;2023-07-22T09:08:26;9.15;;;6.13;;
14470;SDS011;7321;50.802;4.336;2023-07-22T09:10:52;5.47;;;3.55;;
14470;SDS011;7321;50.802;4.336;2023-07-22T09:13:19;5.18;;;2.70;;
14470;SDS011;7321;50.802;4.336;2023-07-22T09:16:29;6.57;;;3.05;;
14470;SDS011;7321;50.802;4.336;2023-07-22T09:18:58;5.22;;;2.97;;
14470;SDS011;7321;50.802;4.336;2023-07-22T09:21:24;5.45;;;2.65;;
14470;SDS011;7321;50.802;4.336;2023-07-22T09:23:54;5.38;;;2.45;;
14470;SDS011;7321;50.802;4.336;2023-07-22T09:26:23;10.75;;;6.68;;
14470;SDS011;7321;50.802;4.336;2023-07-22T09:29:07;5.00;;;3.50;;
14470;SDS011;7321;50.802;4.336;2023-07-22T09:31:49;36.47;;;29.85;;
14470;SDS011;7321;50.802;4.336;2023-07-22T09:34:17;51.75;;;43.70;;
14470;SDS011;7321;50.802;4.336;2023-07-22T09:36:52;10.23;;;6.75;;
14470;SDS011;7321;50.802;4.336;2023-07-22T09:39:23;4.70;;;4.20;;
14470;SDS011;7321;50.802;4.336;2023-07-22T09:41:52;6.10;;;2.75;;
14470;SDS011;7321;50.802;4.336;2023-07-22T09:44:33;4.45;;;2.35;;
14470;SDS011;7321;50.802;4.336;2023-07-22T09:47:06;2.47;;;2.08;;
14470;SDS011;7321;50.802;4.336;2023-07-22T09:49:41;4.80;;;2.63;;
14470;SDS011;7321;50.802;4.336;2023-07-22T09:52:16;3.35;;;2.20;;
14470;SDS011;7321;50.802;4.336;2023-07-22T09:55:07;2.63;;;2.33;;
14470;SDS011;7321;50.802;4.336;2023-07-22T09:57:45;5.38;;;2.22;;
14470;SDS011;7321;50.802;4.336;2023-07-22T10:00:12;3.08;;;1.85;;
14470;SDS011;7321;50.802;4.336;2023-07-22T10:03:07;4.53;;;2.17;;
14470;SDS011;7321;50.802;4.336;2023-07-22T10:05:37;3.05;;;2.10;;
14470;SDS011;7321;50.802;4.336;2023-07-22T10:08:05;2.42;;;1.92;;
14470;SDS011;7321;50.802;4.336;2023-07-22T10:10:35;3.00;;;2.13;;
14470;SDS011;7321;50.802;4.336;2023-07-22T10:13:16;3.85;;;1.88;;
14470;SDS011;7321;50.802;4.336;2023-07-22T10:15:49;3.35;;;1.92;;
14470;SDS011;7321;50.802;4.336;2023-07-22T10:18:16;2.50;;;1.70;;
14470;SDS011;7321;50.802;4.336;2023-07-22T10:20:43;2.35;;;1.75;;
14470;SDS011;7321;50.802;4.336;2023-07-22T10:23:10;5.07;;;2.05;;
14470;SDS011;7321;50.802;4.336;2023-07-22T10:25:39;3.83;;;1.67;;
14470;SDS011;7321;50.802;4.336;2023-07-22T10:28:06;1.90;;;1.77;;
14470;SDS011;7321;50.802;4.336;2023-07-22T10:30:32;2.53;;;1.75;;
14470;SDS011;7321;50.802;4.336;2023-07-22T10:32:59;2.65;;;1.80;;
14470;SDS011;7321;50.802;4.336;2023-07-22T10:40:47;2.90;;;1.50;;
14470;SDS011;7321;50.802;4.336;2023-07-22T10:46:11;3.65;;;2.00;;
14470;SDS011;7321;50.802;4.336;2023-07-22T10:48:42;3.10;;;2.13;;
14470;SDS011;7321;50.802;4.336;2023-07-22T10:51:15;2.60;;;2.10;;
14470;SDS011;7321;50.802;4.336;2023-07-22T10:53:45;3.42;;;2.15;;
14470;SDS011;7321;50.802;4.336;2023-07-22T11:12:13;3.88;;;2.35;;
14470;SDS011;7321;50.802;4.336;2023-07-22T11:14:48;2.65;;;2.42;;
14470;SDS011;7321;50.802;4.336;2023-07-22T11:17:15;4.25;;;3.08;;
14470;SDS011;7321;50.802;4.336;2023-07-22T11:19:42;3.28;;;2.70;;
14470;SDS011;7321;50.802;4.336;2023-07-22T11:22:18;2.58;;;2.38;;
14470;SDS011;7321;50.802;4.336;2023-07-22T11:24:44;3.33;;;2.63;;
14470;SDS011;7321;50.802;4.336;2023-07-22T11:27:10;2.83;;;2.42;;
14470;SDS011;7321;50.802;4.336;2023-07-22T11:29:37;5.18;;;2.33;;
14470;SDS011;7321;50.802;4.336;2023-07-22T11:32:03;5.43;;;2.47;;
14470;SDS011;7321;50.802;4.336;2023-07-22T11:34:29;4.80;;;2.42;;
14470;SDS011;7321;50.802;4.336;2023-07-22T11:36:56;2.67;;;2.40;;
14470;SDS011;7321;50.802;4.336;2023-07-22T11:39:26;5.00;;;4.47;;
14470;SDS011;7321;50.802;4.336;2023-07-22T11:41:59;4.18;;;3.00;;
14470;SDS011;7321;50.802;4.336;2023-07-22T11:44:27;3.38;;;2.58;;
14470;SDS011;7321;50.802;4.336;2023-07-22T11:47:12;2.53;;;2.00;;
14470;SDS011;7321;50.802;4.336;2023-07-22T11:49:39;3.63;;;2.15;;
14470;SDS011;7321;50.802;4.336;2023-07-22T11:52:07;2.78;;;2.40;;
14470;SDS011;7321;50.802;4.336;2023-07-22T11:54:40;4.15;;;2.42;;
14470;SDS011;7321;50.802;4.336;2023-07-22T11:57:11;4.30;;;2.33;;
14470;SDS011;7321;50.802;4.336;2023-07-22T11:59:39;3.42;;;2.28;;
14470;SDS011;7321;50.802;4.336;2023-07-22T12:02:25;3.58;;;2.08;;
14470;SDS011;7321;50.802;4.336;2023-07-22T12:05:02;3.42;;;2.70;;
14470;SDS011;7321;50.802;4.336;2023-07-22T12:07:35;3.28;;;2.60;;
14470;SDS011;7321;50.802;4.336;2023-07-22T12:10:05;4.60;;;2.30;;
14470;SDS011;7321;50.802;4.336;2023-07-22T12:15:02;2.47;;;1.90;;
14470;SDS011;7321;50.802;4.336;2023-07-22T12:17:29;2.83;;;2.33;;
14470;SDS011;7321;50.802;4.336;2023-07-22T12:19:55;2.88;;;2.28;;
14470;SDS011;7321;50.802;4.336;2023-07-22T12:22:21;2.90;;;1.98;;
14470;SDS011;7321;50.802;4.336;2023-07-22T12:24:47;2.28;;;2.08;;
14470;SDS011;7321;50.802;4.336;2023-07-22T12:27:13;5.00;;;3.72;;
14470;SDS011;7321;50.802;4.336;2023-07-22T12:29:39;5.72;;;4.65;;
14470;SDS011;7321;50.802;4.336;2023-07-22T12:32:05;2.92;;;2.00;;
14470;SDS011;7321;50.802;4.336;2023-07-22T12:34:31;1.92;;;1.70;;
14470;SDS011;7321;50.802;4.336;2023-07-22T12:36:57;2.20;;;2.00;;
14470;SDS011;7321;50.802;4.336;2023-07-22T12:39:23;3.92;;;1.90;;
14470;SDS011;7321;50.802;4.336;2023-07-22T12:41:48;5.43;;;2.60;;
14470;SDS011;7321;50.802;4.336;2023-07-22T12:44:14;2.97;;;1.98;;
14470;SDS011;7321;50.802;4.336;2023-07-22T12:46:40;2.03;;;1.83;;
14470;SDS011;7321;50.802;4.336;2023-07-22T12:49:06;2.22;;;2.00;;
14470;SDS011;7321;50.802;4.336;2023-07-22T12:51:31;3.20;;;1.90;;
14470;SDS011;7321;50.802;4.336;2023-07-22T12:53:57;3.65;;;1.92;;
14470;SDS011;7321;50.802;4.336;2023-07-22T12:56:23;2.80;;;1.55;;
14470;SDS011;7321;50.802;4.336;2023-07-22T12:58:49;4.10;;;1.70;;
14470;SDS011;7321;50.802;4.336;2023-07-22T13:01:15;2.90;;;1.60;;
14470;SDS011;7321;50.802;4.336;2023-07-22T13:03:41;1.98;;;1.63;;
14470;SDS011;7321;50.802;4.336;2023-07-22T13:06:07;2.80;;;1.92;;
14470;SDS011;7321;50.802;4.336;2023-07-22T13:08:33;3.63;;;2.08;;
14470;SDS011;7321;50.802;4.336;2023-07-22T13:10:58;6.50;;;2.00;;
14470;SDS011;7321;50.802;4.336;2023-07-22T13:13:24;3.20;;;1.80;;
14470;SDS011;7321;50.802;4.336;2023-07-22T13:15:50;2.92;;;2.00;;
14470;SDS011;7321;50.802;4.336;2023-07-22T13:18:19;3.08;;;1.90;;
14470;SDS011;7321;50.802;4.336;2023-07-22T13:20:45;3.03;;;1.63;;
14470;SDS011;7321;50.802;4.336;2023-07-22T13:23:10;4.65;;;2.15;;
14470;SDS011;7321;50.802;4.336;2023-07-22T13:25:36;5.15;;;3.80;;
14470;SDS011;7321;50.802;4.336;2023-07-22T13:28:02;3.65;;;2.20;;
14470;SDS011;7321;50.802;4.336;2023-07-22T13:30:28;6.20;;;2.00;;
14470;SDS011;7321;50.802;4.336;2023-07-22T13:32:54;3.78;;;2.10;;
14470;SDS011;7321;50.802;4.336;2023-07-22T13:35:21;2.75;;;1.83;;
14470;SDS011;7321;50.802;4.336;2023-07-22T13:37:50;3.03;;;2.00;;
14470;SDS011;7321;50.802;4.336;2023-07-22T13:40:16;5.57;;;2.05;;
14470;SDS011;7321;50.802;4.336;2023-07-22T13:42:42;5.78;;;2.50;;
14470;SDS011;7321;50.802;4.336;2023-07-22T13:45:08;4.05;;;2.40;;
14470;SDS011;7321;50.802;4.336;2023-07-22T13:47:34;3.13;;;2.10;;
14470;SDS011;7321;50.802;4.336;2023-07-22T13:50:01;3.08;;;1.95;;
14470;SDS011;7321;50.802;4.336;2023-07-22T13:52:27;2.72;;;2.30;;
14470;SDS011;7321;50.802;4.336;2023-07-22T13:55:19;3.47;;;2.03;;
14470;SDS011;7321;50.802;4.336;2023-07-22T13:57:44;2.55;;;2.00;;
14470;SDS011;7321;50.802;4.336;2023-07-22T14:00:10;3.40;;;2.25;;
14470;SDS011;7321;50.802;4.336;2023-07-22T14:02:40;3.90;;;2.45;;
14470;SDS011;7321;50.802;4.336;2023-07-22T14:05:06;2.30;;;2.00;;
14470;SDS011;7321;50.802;4.336;2023-07-22T14:07:33;3.92;;;2.03;;
14470;SDS011;7321;50.802;4.336;2023-07-22T14:10:04;2.72;;;2.10;;
14470;SDS011;7321;50.802;4.336;2023-07-22T14:12:30;2.95;;;1.98;;
14470;SDS011;7321;50.802;4.336;2023-07-22T14:17:54;4.82;;;2.35;;
14470;SDS011;7321;50.802;4.336;2023-07-22T14:20:20;4.25;;;2.10;;
14470;SDS011;7321;50.802;4.336;2023-07-22T14:22:46;3.75;;;2.03;;
14470;SDS011;7321;50.802;4.336;2023-07-22T14:25:15;2.88;;;1.92;;
14470;SDS011;7321;50.802;4.336;2023-07-22T14:27:41;3.05;;;2.30;;
14470;SDS011;7321;50.802;4.336;2023-07-22T14:30:10;3.40;;;2.10;;
14470;SDS011;7321;50.802;4.336;2023-07-22T14:32:41;2.42;;;1.77;;
14470;SDS011;7321;50.802;4.336;2023-07-22T14:35:08;3.08;;;2.05;;
14470;SDS011;7321;50.802;4.336;2023-07-22T14:37:36;4.35;;;2.25;;
14470;SDS011;7321;50.802;4.336;2023-07-22T14:40:03;3.08;;;1.63;;
14470;SDS011;7321;50.802;4.336;2023-07-22T14:42:30;3.83;;;2.30;;
14470;SDS011;7321;50.802;4.336;2023-07-22T14:44:56;3.47;;;2.13;;
14470;SDS011;7321;50.802;4.336;2023-07-22T14:47:22;3.97;;;1.90;;
14470;SDS011;7321;50.802;4.336;2023-07-22T14:49:48;2.92;;;2.00;;
14470;SDS011;7321;50.802;4.336;2023-07-22T14:52:14;2.90;;;1.80;;
14470;SDS011;7321;50.802;4.336;2023-07-22T14:54:39;5.30;;;2.30;;
14470;SDS011;7321;50.802;4.336;2023-07-22T14:57:05;2.80;;;1.70;;
14470;SDS011;7321;50.802;4.336;2023-07-22T14:59:31;2.88;;;1.98;;
14470;SDS011;7321;50.802;4.336;2023-07-22T15:01:57;3.67;;;1.90;;
14470;SDS011;7321;50.802;4.336;2023-07-22T15:04:25;2.60;;;1.88;;
14470;SDS011;7321;50.802;4.336;2023-07-22T15:06:51;2.83;;;2.10;;
14470;SDS011;7321;50.802;4.336;2023-07-22T15:09:17;2.50;;;1.70;;
14470;SDS011;7321;50.802;4.336;2023-07-22T15:11:43;3.47;;;1.70;;
14470;SDS011;7321;50.802;4.336;2023-07-22T15:14:09;4.43;;;2.08;;
14470;SDS011;7321;50.802;4.336;2023-07-22T15:16:34;4.05;;;2.03;;
14470;SDS011;7321;50.802;4.336;2023-07-22T15:19:01;3.30;;;2.03;;
14470;SDS011;7321;50.802;4.336;2023-07-22T15:21:26;3.42;;;2.00;;
14470;SDS011;7321;50.802;4.336;2023-07-22T15:23:53;4.05;;;2.17;;